createdAt,value
2023-04-16T00:00:39.571Z,7.92
2023-04-16T00:03:06.383Z,7.81
2023-04-16T00:05:33.002Z,7.84
2023-04-16T00:07:59.521Z,7.81
2023-04-16T00:10:26.060Z,7.80
2023-04-16T00:12:52.558Z,7.86
2023-04-16T00:15:19.096Z,7.83
2023-04-16T00:17:45.743Z,7.81
2023-04-16T00:20:12.422Z,7.82
2023-04-16T00:22:39.446Z,7.84
2023-04-16T00:25:06.331Z,7.90
2023-04-16T00:27:32.949Z,7.76
2023-04-16T00:29:59.482Z,7.75
2023-04-16T00:32:26.116Z,7.77
2023-04-16T00:34:52.705Z,7.73
2023-04-16T00:37:19.212Z,7.71
2023-04-16T00:39:45.747Z,7.79
2023-04-16T00:42:12.287Z,7.69
2023-04-16T00:44:38.764Z,7.71
2023-04-16T00:47:07.503Z,7.67
2023-04-16T00:49:34.183Z,7.62
2023-04-16T00:52:02.483Z,7.53
2023-04-16T00:54:29.273Z,7.55
2023-04-16T00:56:56.690Z,7.57
2023-04-16T00:59:23.166Z,7.52
2023-04-16T01:01:49.786Z,7.59
2023-04-16T01:04:16.510Z,7.67
2023-04-16T01:06:43.130Z,7.63
2023-04-16T01:09:12.892Z,7.70
2023-04-16T01:11:39.915Z,7.73
2023-04-16T01:14:06.643Z,7.69
2023-04-16T01:16:33.126Z,7.65
2023-04-16T01:18:59.771Z,7.56
2023-04-16T01:21:26.557Z,7.57
2023-04-16T01:23:53.040Z,7.57
2023-04-16T01:26:19.538Z,7.64
2023-04-16T01:28:46.289Z,7.61
2023-04-16T01:31:12.865Z,7.65
2023-04-16T01:33:39.411Z,7.65
2023-04-16T01:36:06.207Z,7.60
2023-04-16T01:38:32.716Z,7.59
2023-04-16T01:40:59.657Z,7.56
2023-04-16T01:43:26.258Z,7.59
2023-04-16T01:45:57.019Z,7.58
2023-04-16T01:48:23.530Z,7.54
2023-04-16T01:50:50.205Z,7.53
2023-04-16T01:53:16.721Z,7.52
2023-04-16T01:55:43.205Z,7.52
2023-04-16T01:58:11.039Z,7.57
2023-04-16T02:00:37.735Z,7.62
2023-04-16T02:03:04.549Z,7.59
2023-04-16T02:05:31.281Z,7.50
2023-04-16T02:07:57.752Z,7.46
2023-04-16T02:10:24.250Z,7.52
2023-04-16T02:12:51.260Z,7.47
2023-04-16T02:15:17.858Z,7.44
2023-04-16T02:17:46.358Z,7.40
2023-04-16T02:20:12.848Z,7.38
2023-04-16T02:22:39.331Z,7.36
2023-04-16T02:25:06.044Z,7.37
2023-04-16T02:27:32.787Z,7.40
2023-04-16T02:29:59.347Z,7.47
2023-04-16T02:32:25.891Z,7.47
2023-04-16T02:34:52.392Z,7.43
2023-04-16T02:37:18.855Z,7.38
2023-04-16T02:39:46.317Z,7.41
2023-04-16T02:42:13.359Z,7.39
2023-04-16T02:44:39.902Z,7.38
2023-04-16T02:47:06.400Z,7.47
2023-04-16T02:49:33.018Z,7.47
2023-04-16T02:51:59.498Z,7.46
2023-04-16T02:54:26.025Z,7.50
2023-04-16T02:56:52.548Z,7.52
2023-04-16T02:59:19.038Z,7.53
2023-04-16T03:01:45.556Z,7.53
2023-04-16T03:04:12.065Z,7.55
2023-04-16T03:06:38.639Z,7.44
2023-04-16T03:09:05.154Z,7.51
2023-04-16T03:11:31.747Z,7.51
2023-04-16T03:13:58.287Z,7.51
2023-04-16T03:16:24.809Z,7.48
2023-04-16T03:18:51.370Z,7.40
2023-04-16T03:21:17.900Z,7.37
2023-04-16T03:23:44.409Z,7.35
2023-04-16T03:26:10.912Z,7.33
2023-04-16T03:28:37.420Z,7.34
2023-04-16T03:31:04.358Z,7.31
2023-04-16T03:33:31.203Z,7.28
2023-04-16T03:35:58.630Z,7.25
2023-04-16T03:38:26.624Z,7.20
2023-04-16T03:40:53.317Z,7.23
2023-04-16T03:43:19.896Z,7.20
2023-04-16T03:45:47.131Z,7.21
2023-04-16T03:48:13.802Z,7.21
2023-04-16T03:50:40.546Z,7.26
2023-04-16T03:53:07.057Z,7.33
2023-04-16T03:55:33.604Z,7.24
2023-04-16T03:58:03.124Z,7.33
2023-04-16T04:00:30.509Z,7.34
2023-04-16T04:02:57.355Z,7.34
2023-04-16T04:05:24.113Z,7.35
2023-04-16T04:07:50.616Z,7.24
2023-04-16T04:10:17.122Z,7.20
2023-04-16T04:12:44.105Z,7.22
2023-04-16T04:15:11.630Z,7.27
2023-04-16T04:17:38.287Z,7.25
2023-04-16T04:20:05.374Z,7.16
2023-04-16T04:22:31.900Z,7.16
2023-04-16T04:24:58.471Z,7.18
2023-04-16T04:27:25.024Z,7.17
2023-04-16T04:29:51.557Z,7.21
2023-04-16T04:32:18.224Z,7.28
2023-04-16T04:34:44.756Z,7.23
2023-04-16T04:37:11.503Z,7.27
2023-04-16T04:39:38.092Z,7.15
2023-04-16T04:42:04.768Z,7.11
2023-04-16T04:44:31.359Z,7.13
2023-04-16T04:46:57.860Z,7.17
2023-04-16T04:49:24.373Z,7.21
2023-04-16T04:51:50.942Z,7.21
2023-04-16T04:54:17.471Z,7.20
2023-04-16T04:56:45.878Z,7.19
2023-04-16T04:59:12.730Z,7.26
2023-04-16T05:01:39.334Z,7.30
2023-04-16T05:04:06.214Z,7.27
2023-04-16T05:06:32.792Z,7.33
2023-04-16T05:08:59.261Z,7.27
2023-04-16T05:11:25.956Z,7.30
2023-04-16T05:13:52.411Z,7.29
2023-04-16T05:16:18.920Z,7.31
2023-04-16T05:18:45.541Z,7.32
2023-04-16T05:21:12.082Z,7.40
2023-04-16T05:23:38.632Z,7.35
2023-04-16T05:26:05.301Z,7.35
2023-04-16T05:28:32.061Z,7.40
2023-04-16T05:30:58.603Z,7.37
2023-04-16T05:33:25.252Z,7.30
2023-04-16T05:35:51.818Z,7.36
2023-04-16T05:38:18.694Z,7.39
2023-04-16T05:40:45.384Z,7.35
2023-04-16T05:43:11.948Z,7.41
2023-04-16T05:45:41.184Z,7.33
2023-04-16T05:48:10.967Z,7.34
2023-04-16T05:50:38.045Z,7.39
2023-04-16T05:53:06.741Z,7.37
2023-04-16T05:55:33.575Z,7.40
2023-04-16T05:58:00.155Z,7.36
2023-04-16T06:00:27.215Z,7.43
2023-04-16T06:02:53.996Z,7.38
2023-04-16T06:05:20.671Z,7.46
2023-04-16T06:07:47.388Z,7.42
2023-04-16T06:10:13.881Z,7.45
2023-04-16T06:12:40.502Z,7.46
2023-04-16T06:15:07.719Z,7.51
2023-04-16T06:17:34.274Z,7.51
2023-04-16T06:20:01.138Z,7.53
2023-04-16T06:22:27.771Z,7.53
2023-04-16T06:24:54.305Z,7.55
2023-04-16T06:27:21.178Z,7.55
2023-04-16T06:29:47.693Z,7.63
2023-04-16T06:32:14.247Z,7.67
2023-04-16T06:34:40.945Z,7.60
2023-04-16T06:37:10.340Z,7.56
2023-04-16T06:39:37.353Z,7.52
2023-04-16T06:42:04.243Z,7.49
2023-04-16T06:44:30.782Z,7.64
2023-04-16T06:46:57.337Z,7.58
2023-04-16T06:49:23.881Z,7.53
2023-04-16T06:51:50.508Z,7.50
2023-04-16T06:54:17.030Z,7.64
2023-04-16T06:56:43.512Z,7.66
2023-04-16T06:59:10.259Z,7.62
2023-04-16T07:01:37.270Z,7.73
2023-04-16T07:04:04.451Z,7.76
2023-04-16T07:06:31.910Z,7.79
2023-04-16T07:08:58.401Z,7.82
2023-04-16T07:11:25.921Z,7.90
2023-04-16T07:13:53.870Z,7.83
2023-04-16T07:16:20.650Z,7.70
2023-04-16T07:18:47.217Z,7.72
2023-04-16T07:21:13.748Z,7.78
2023-04-16T07:23:40.265Z,7.82
2023-04-16T07:26:06.749Z,7.83
2023-04-16T07:28:33.268Z,7.74
2023-04-16T07:31:00.052Z,7.83
2023-04-16T07:33:27.484Z,7.93
2023-04-16T07:35:53.988Z,7.99
2023-04-16T07:38:20.708Z,8.09
2023-04-16T07:40:47.233Z,8.10
2023-04-16T07:43:15.430Z,8.14
2023-04-16T07:45:42.346Z,8.27
2023-04-16T07:48:08.900Z,8.18
2023-04-16T07:50:35.486Z,8.05
2023-04-16T07:53:03.162Z,7.97
2023-04-16T07:55:29.711Z,7.89
2023-04-16T07:57:56.260Z,8.02
2023-04-16T08:00:22.889Z,8.08
2023-04-16T08:02:49.638Z,8.11
2023-04-16T08:05:16.428Z,8.09
2023-04-16T08:07:43.135Z,8.28
2023-04-16T08:10:09.797Z,8.27
2023-04-16T08:12:36.327Z,8.27
2023-04-16T08:15:02.879Z,8.19
2023-04-16T08:17:30.108Z,8.24
2023-04-16T08:19:56.688Z,8.37
2023-04-16T08:22:23.317Z,8.45
2023-04-16T08:24:49.865Z,8.43
2023-04-16T08:27:19.666Z,8.48
2023-04-16T08:29:46.960Z,8.43
2023-04-16T08:32:13.564Z,8.34
2023-04-16T08:34:40.074Z,8.37
2023-04-16T08:37:06.593Z,8.39
2023-04-16T08:39:33.313Z,8.33
2023-04-16T08:42:02.848Z,8.41
2023-04-16T08:44:34.790Z,8.31
2023-04-16T08:47:02.375Z,8.23
2023-04-16T08:49:29.587Z,8.21
2023-04-16T08:51:56.958Z,8.39
2023-04-16T08:54:32.801Z,8.42
2023-04-16T08:56:59.867Z,8.50
2023-04-16T08:59:26.876Z,8.60
2023-04-16T09:01:57.944Z,8.46
2023-04-16T09:04:28.760Z,8.48
2023-04-16T09:06:56.814Z,8.62
2023-04-16T09:09:23.561Z,8.65
2023-04-16T09:11:53.995Z,8.67
2023-04-16T09:14:20.896Z,8.43
2023-04-16T09:16:48.148Z,8.40
2023-04-16T09:19:15.734Z,8.37
2023-04-16T09:21:43.107Z,8.49
2023-04-16T09:24:09.869Z,8.44
2023-04-16T09:26:36.642Z,8.43
2023-04-16T09:29:03.364Z,8.38
2023-04-16T09:31:30.266Z,8.32
2023-04-16T09:34:06.820Z,8.30
2023-04-16T09:36:34.333Z,8.33
2023-04-16T09:39:01.234Z,8.39
2023-04-16T09:41:29.721Z,8.36
2023-04-16T09:44:00.289Z,8.38
2023-04-16T09:46:31.061Z,8.45
2023-04-16T09:48:58.120Z,8.45
2023-04-16T09:51:26.980Z,8.58
2023-04-16T09:53:56.362Z,8.61
2023-04-16T09:56:25.065Z,8.47
2023-04-16T09:58:53.609Z,8.37
2023-04-16T10:01:20.144Z,8.35
2023-04-16T10:03:49.799Z,8.32
2023-04-16T10:06:19.320Z,8.31
2023-04-16T10:08:50.574Z,8.27
2023-04-16T10:11:17.797Z,8.35
2023-04-16T10:13:44.683Z,8.36
2023-04-16T10:16:11.794Z,8.40
2023-04-16T10:18:40.495Z,8.44
2023-04-16T10:21:07.957Z,8.45
2023-04-16T10:23:34.849Z,8.43
2023-04-16T10:26:01.959Z,8.59
2023-04-16T10:28:29.568Z,8.54
2023-04-16T10:30:57.982Z,8.71
2023-04-16T10:33:26.038Z,8.75
2023-04-16T10:36:06.784Z,8.73
2023-04-16T10:38:35.396Z,8.79
2023-04-16T10:41:04.138Z,8.70
2023-04-16T10:43:33.282Z,8.69
2023-04-16T10:46:24.101Z,8.68
2023-04-16T10:48:54.092Z,8.68
2023-04-16T10:51:34.786Z,8.76
2023-04-16T10:54:20.055Z,8.95
2023-04-16T10:56:47.043Z,8.91
2023-04-16T10:59:17.536Z,8.85
2023-04-16T11:01:45.957Z,8.84
2023-04-16T11:04:21.539Z,8.81
2023-04-16T11:07:04.618Z,8.81
2023-04-16T11:10:00.106Z,8.85
2023-04-16T11:12:29.942Z,8.88
2023-04-16T11:15:23.421Z,9.11
2023-04-16T11:17:51.783Z,9.19
2023-04-16T11:20:21.207Z,9.24
2023-04-16T11:22:52.051Z,9.19
2023-04-16T11:25:26.207Z,9.32
2023-04-16T11:27:53.194Z,9.39
2023-04-16T11:30:31.556Z,9.48
2023-04-16T11:32:58.506Z,9.55
2023-04-16T11:35:25.162Z,9.73
2023-04-16T11:37:56.336Z,9.78
2023-04-16T11:40:22.911Z,9.84
2023-04-16T11:42:49.360Z,9.91
2023-04-16T11:45:15.825Z,9.92
2023-04-16T11:47:45.701Z,9.92
2023-04-16T11:50:22.327Z,10.10
2023-04-16T11:52:49.908Z,10.07
2023-04-16T11:55:16.706Z,9.99
2023-04-16T11:57:43.536Z,9.92
2023-04-16T12:00:16.457Z,10.03
2023-04-16T12:02:45.312Z,10.29
2023-04-16T12:05:34.045Z,10.30
2023-04-16T12:08:05.992Z,10.41
2023-04-16T12:10:37.559Z,10.46
2023-04-16T12:13:16.924Z,10.18
2023-04-16T12:15:54.353Z,10.47
2023-04-16T12:18:26.868Z,10.28
2023-04-16T12:20:53.735Z,10.38
2023-04-16T12:23:27.713Z,10.27
2023-04-16T12:25:55.248Z,10.28
2023-04-16T12:28:33.127Z,10.16
2023-04-16T12:30:59.909Z,10.25
2023-04-16T12:33:26.473Z,10.12
2023-04-16T12:35:52.967Z,10.17
2023-04-16T12:38:21.206Z,10.16
2023-04-16T12:40:48.735Z,10.38
2023-04-16T12:43:15.578Z,10.12
2023-04-16T12:45:42.177Z,10.26
2023-04-16T12:48:08.713Z,10.16
2023-04-16T12:50:35.530Z,10.15
2023-04-16T12:53:02.005Z,10.09
2023-04-16T12:55:28.618Z,10.10
2023-04-16T12:57:55.214Z,9.93
2023-04-16T13:00:22.579Z,10.11
2023-04-16T13:02:49.184Z,10.22
2023-04-16T13:05:17.297Z,10.18
2023-04-16T13:07:43.841Z,10.29
2023-04-16T13:10:10.897Z,10.20
2023-04-16T13:12:37.649Z,10.29
2023-04-16T13:15:04.893Z,10.19
2023-04-16T13:17:31.414Z,10.29
2023-04-16T13:19:57.969Z,10.26
2023-04-16T13:22:24.532Z,10.44
2023-04-16T13:24:51.064Z,10.02
2023-04-16T13:27:18.040Z,10.03
2023-04-16T13:29:44.873Z,10.00
2023-04-16T13:32:13.757Z,9.89
2023-04-16T13:34:40.358Z,9.95
2023-04-16T13:37:06.980Z,9.90
2023-04-16T13:39:34.097Z,9.89
2023-04-16T13:42:00.712Z,9.92
2023-04-16T13:44:27.247Z,9.91
2023-04-16T13:46:54.162Z,9.94
2023-04-16T13:49:20.701Z,9.79
2023-04-16T13:51:47.267Z,9.73
2023-04-16T13:54:13.817Z,10.04
2023-04-16T13:56:40.902Z,10.09
2023-04-16T13:59:08.127Z,9.87
2023-04-16T14:01:34.956Z,10.00
2023-04-16T14:04:06.448Z,10.09
2023-04-16T14:06:34.374Z,10.14
2023-04-16T14:09:01.275Z,9.93
2023-04-16T14:11:27.906Z,9.93
2023-04-16T14:13:54.790Z,10.03
2023-04-16T14:16:21.350Z,9.90
2023-04-16T14:18:47.976Z,10.07
2023-04-16T14:21:14.519Z,9.94
2023-04-16T14:23:41.187Z,9.86
2023-04-16T14:26:07.778Z,9.99
2023-04-16T14:28:35.876Z,9.93
2023-04-16T14:31:02.491Z,9.88
2023-04-16T14:33:29.196Z,9.98
2023-04-16T14:35:55.865Z,10.23
2023-04-16T14:38:22.427Z,10.30
2023-04-16T14:40:48.968Z,10.21
2023-04-16T14:43:15.565Z,10.33
2023-04-16T14:45:42.268Z,10.12
2023-04-16T14:48:08.867Z,10.05
2023-04-16T14:50:39.132Z,9.99
2023-04-16T14:53:05.959Z,10.04
2023-04-16T14:55:32.698Z,9.93
2023-04-16T14:58:00.054Z,10.15
2023-04-16T15:00:27.573Z,10.30
2023-04-16T15:02:57.699Z,10.31
2023-04-16T15:05:24.547Z,10.34
2023-04-16T15:07:51.284Z,10.35
2023-04-16T15:10:17.919Z,10.38
2023-04-16T15:12:44.488Z,10.41
2023-04-16T15:15:11.334Z,10.39
2023-04-16T15:17:37.970Z,10.23
2023-04-16T15:20:08.229Z,10.35
2023-04-16T15:22:35.225Z,10.40
2023-04-16T15:25:02.109Z,10.43
2023-04-16T15:27:28.602Z,10.41
2023-04-16T15:29:55.314Z,10.30
2023-04-16T15:32:21.902Z,10.22
2023-04-16T15:34:48.545Z,10.00
2023-04-16T15:37:15.512Z,9.95
2023-04-16T15:39:42.168Z,10.22
2023-04-16T15:42:08.774Z,10.07
2023-04-16T15:44:35.343Z,10.14
2023-04-16T15:47:01.834Z,10.16
2023-04-16T15:49:28.453Z,10.12
2023-04-16T15:51:55.721Z,10.30
2023-04-16T15:54:22.244Z,10.25
2023-04-16T15:56:48.824Z,10.26
2023-04-16T15:59:15.426Z,10.29
2023-04-16T16:01:42.279Z,10.24
2023-04-16T16:04:09.098Z,10.08
2023-04-16T16:06:37.916Z,10.11
2023-04-16T16:09:04.970Z,10.28
2023-04-16T16:11:32.585Z,10.17
2023-04-16T16:14:01.568Z,10.29
2023-04-16T16:16:28.600Z,10.14
2023-04-16T16:18:55.320Z,10.13
2023-04-16T16:21:22.204Z,10.04
2023-04-16T16:23:48.795Z,9.97
2023-04-16T16:26:15.351Z,9.98
2023-04-16T16:28:43.909Z,9.96
2023-04-16T16:31:12.228Z,9.84
2023-04-16T16:33:40.383Z,9.82
2023-04-16T16:36:10.566Z,9.81
2023-04-16T16:38:38.030Z,9.70
2023-04-16T16:41:04.564Z,9.78
2023-04-16T16:43:31.419Z,9.58
2023-04-16T16:45:57.951Z,9.52
2023-04-16T16:48:24.524Z,9.42
2023-04-16T16:50:51.024Z,9.55
2023-04-16T16:53:17.510Z,9.60
2023-04-16T16:55:44.034Z,9.66
2023-04-16T16:58:11.182Z,9.68
2023-04-16T17:00:38.076Z,9.55
2023-04-16T17:03:04.778Z,9.71
2023-04-16T17:05:31.588Z,9.49
2023-04-16T17:07:58.676Z,9.49
2023-04-16T17:10:25.325Z,9.38
2023-04-16T17:12:51.960Z,9.32
2023-04-16T17:15:21.467Z,9.40
2023-04-16T17:17:48.624Z,9.25
2023-04-16T17:20:15.642Z,9.16
2023-04-16T17:22:42.581Z,9.15
2023-04-16T17:25:09.905Z,9.18
2023-04-16T17:27:36.494Z,9.00
2023-04-16T17:30:05.330Z,8.96
2023-04-16T17:32:32.637Z,9.04
2023-04-16T17:35:00.949Z,9.13
2023-04-16T17:37:27.776Z,9.14
2023-04-16T17:39:54.414Z,9.09
2023-04-16T17:42:21.069Z,9.04
2023-04-16T17:44:47.675Z,9.02
2023-04-16T17:47:14.285Z,8.98
2023-04-16T17:49:40.990Z,8.95
2023-04-16T17:52:07.483Z,9.00
2023-04-16T17:54:34.035Z,8.97
2023-04-16T17:57:00.641Z,9.03
2023-04-16T17:59:27.463Z,8.99
2023-04-16T18:01:54.974Z,9.05
2023-04-16T18:04:21.725Z,9.04
2023-04-16T18:06:48.457Z,9.09
2023-04-16T18:09:15.512Z,9.08
2023-04-16T18:11:42.090Z,8.90
2023-04-16T18:14:09.857Z,8.90
2023-04-16T18:16:36.687Z,8.78
2023-04-16T18:19:03.286Z,8.72
2023-04-16T18:21:30.489Z,8.68
2023-04-16T18:23:57.633Z,8.60
2023-04-16T18:26:25.317Z,8.53
2023-04-16T18:28:51.938Z,8.49
2023-04-16T18:31:21.023Z,8.42
2023-04-16T18:33:56.296Z,8.50
2023-04-16T18:36:24.594Z,8.51
2023-04-16T18:39:01.091Z,8.42
2023-04-16T18:41:29.660Z,8.39
2023-04-16T18:43:56.329Z,8.39
2023-04-16T18:46:23.047Z,8.33
2023-04-16T18:48:49.731Z,8.34
2023-04-16T18:51:16.752Z,8.40
2023-04-16T18:53:45.433Z,8.36
2023-04-16T18:56:12.375Z,8.30
2023-04-16T18:58:38.932Z,8.26
2023-04-16T19:01:10.959Z,8.21
2023-04-16T19:03:38.210Z,8.18
2023-04-16T19:06:05.973Z,8.24
2023-04-16T19:08:32.717Z,8.27
2023-04-16T19:10:59.326Z,8.24
2023-04-16T19:13:26.006Z,8.24
2023-04-16T19:15:58.323Z,8.09
2023-04-16T19:18:24.905Z,8.07
2023-04-16T19:20:51.455Z,8.06
2023-04-16T19:23:18.032Z,8.00
2023-04-16T19:25:44.618Z,8.00
2023-04-16T19:28:11.150Z,7.98
2023-04-16T19:30:39.391Z,8.09
2023-04-16T19:33:05.962Z,8.17
2023-04-16T19:35:33.521Z,8.21
2023-04-16T19:38:00.232Z,8.24
2023-04-16T19:40:26.750Z,8.23
2023-04-16T19:42:53.223Z,8.23
2023-04-16T19:45:23.249Z,8.19
2023-04-16T19:47:51.259Z,8.24
2023-04-16T19:50:17.832Z,8.13
2023-04-16T19:52:44.324Z,8.15
2023-04-16T19:55:10.897Z,8.13
2023-04-16T19:57:37.510Z,8.12
2023-04-16T20:00:07.917Z,8.08
2023-04-16T20:02:34.513Z,8.07
2023-04-16T20:05:01.598Z,8.10
2023-04-16T20:07:28.097Z,8.17
2023-04-16T20:09:54.928Z,8.15
2023-04-16T20:12:21.472Z,8.15
2023-04-16T20:14:48.246Z,8.11
2023-04-16T20:17:19.505Z,8.10
2023-04-16T20:19:47.516Z,8.09
2023-04-16T20:22:14.961Z,8.11
2023-04-16T20:24:47.866Z,8.02
2023-04-16T20:27:15.161Z,8.05
2023-04-16T20:29:41.876Z,8.09
2023-04-16T20:32:08.447Z,8.08
2023-04-16T20:34:36.517Z,8.11
2023-04-16T20:37:03.372Z,8.08
2023-04-16T20:39:34.203Z,8.13
2023-04-16T20:42:00.947Z,8.06
2023-04-16T20:44:33.320Z,8.03
2023-04-16T20:47:00.089Z,7.96
2023-04-16T20:49:26.686Z,8.03
2023-04-16T20:51:53.423Z,7.97
2023-04-16T20:54:19.911Z,8.06
2023-04-16T20:56:47.194Z,7.89
2023-04-16T20:59:13.811Z,7.85
2023-04-16T21:01:40.791Z,7.86
2023-04-16T21:04:07.973Z,7.94
2023-04-16T21:06:38.560Z,7.94
2023-04-16T21:09:06.014Z,7.92
2023-04-16T21:11:34.709Z,7.92
2023-04-16T21:14:02.369Z,7.95
2023-04-16T21:16:29.244Z,7.93
2023-04-16T21:18:57.250Z,7.97
2023-04-16T21:21:24.162Z,7.97
2023-04-16T21:23:50.952Z,8.03
2023-04-16T21:26:17.417Z,8.03
2023-04-16T21:28:44.020Z,7.98
2023-04-16T21:31:10.561Z,7.91
2023-04-16T21:33:37.177Z,7.97
2023-04-16T21:36:03.810Z,8.00
2023-04-16T21:38:30.352Z,8.04
2023-04-16T21:40:56.888Z,8.09
2023-04-16T21:43:23.779Z,7.97
2023-04-16T21:45:53.938Z,7.98
2023-04-16T21:48:21.186Z,7.86
2023-04-16T21:50:47.699Z,7.80
2023-04-16T21:53:14.358Z,7.73
2023-04-16T21:55:42.192Z,7.70
2023-04-16T21:58:08.675Z,7.74
2023-04-16T22:00:35.243Z,7.76
2023-04-16T22:03:02.069Z,7.76
2023-04-16T22:05:29.684Z,7.81
2023-04-16T22:07:56.701Z,7.84
2023-04-16T22:10:23.200Z,7.86
2023-04-16T22:12:54.806Z,7.91
2023-04-16T22:15:21.338Z,7.96
2023-04-16T22:17:48.483Z,7.94
2023-04-16T22:20:15.745Z,7.89
2023-04-16T22:22:42.460Z,7.86
2023-04-16T22:25:09.831Z,7.83
2023-04-16T22:27:36.778Z,7.85
2023-04-16T22:30:04.094Z,7.87
2023-04-16T22:32:31.026Z,7.87
2023-04-16T22:34:57.709Z,7.87
2023-04-16T22:37:24.187Z,7.86
2023-04-16T22:39:50.760Z,7.84
2023-04-16T22:42:17.334Z,7.83
2023-04-16T22:44:43.803Z,7.82
2023-04-16T22:47:10.305Z,7.80
2023-04-16T22:49:36.843Z,7.82
2023-04-16T22:52:03.418Z,7.80
2023-04-16T22:54:33.323Z,7.76
2023-04-16T22:56:59.882Z,7.77
2023-04-16T22:59:26.389Z,7.70
2023-04-16T23:01:53.125Z,7.65
2023-04-16T23:04:19.870Z,7.63
2023-04-16T23:06:46.463Z,7.62
2023-04-16T23:09:13.289Z,7.69
2023-04-16T23:11:40.065Z,7.58
2023-04-16T23:14:07.625Z,7.64
2023-04-16T23:16:34.130Z,7.67
2023-04-16T23:19:00.909Z,7.65
2023-04-16T23:21:27.433Z,7.67
2023-04-16T23:23:54.347Z,7.71
2023-04-16T23:26:20.855Z,7.68
2023-04-16T23:28:47.372Z,7.76
2023-04-16T23:31:13.954Z,7.76
2023-04-16T23:33:40.696Z,7.73
2023-04-16T23:36:07.686Z,7.71
2023-04-16T23:38:34.209Z,7.68
2023-04-16T23:41:00.805Z,7.71
2023-04-16T23:43:27.351Z,7.73
2023-04-16T23:45:53.907Z,7.75
2023-04-16T23:48:20.407Z,7.78
2023-04-16T23:50:46.884Z,7.71
2023-04-16T23:53:13.346Z,7.72
2023-04-16T23:55:39.953Z,7.66
2023-04-16T23:58:06.479Z,7.63
